Time;durP1;ratioP1;P1;durP2;ratioP2;P2;SDS_P1;SDS_P2;PMS_P1;PMS_P2;Temp;Humidity;BMP_temperature;BMP_pressure;BME280_temperature;BME280_humidity;BME280_pressure;Samples;Min_cycle;Max_cycle;Signal;HPM_P1;HPM_P2
2023/03/15 00:01:19;;;;;;;;;;;;;;;9.10;33.38;96548.06;10211837;28;19922;-55
2023/03/15 00:06:17;;;;;;;;;;;;;;;9.05;33.39;96542.97;10204003;28;20020;-55
2023/03/15 00:11:17;;;;;;;;;;;;;;;9.02;33.58;96553.38;10209199;28;19994;-55
2023/03/15 00:16:17;;;;;;;;;;;;;;;9.02;33.30;96542.13;10204966;28;20005;-55
2023/03/15 00:21:15;;;;;;;;;;;;;;;9.08;32.94;96547.22;10212420;28;19964;-55
2023/03/15 00:26:14;;;;;;;;;;;;;;;9.20;32.91;96548.78;10206461;28;19917;-55
2023/03/15 00:31:14;;;;;;;;;;;;;;;9.14;33.10;96534.22;10214133;28;19913;-55
2023/03/15 00:36:13;;;;;;;;;;;;;;;9.12;33.07;96528.19;10204358;28;19961;-55
2023/03/15 00:41:14;;;;;;;;;;;;;;;8.94;32.60;96524.13;10225169;28;20015;-56
2023/03/15 00:46:13;;;;;;;;;;;;;;;8.92;32.38;96513.81;10205706;28;19949;-54
2023/03/15 00:51:13;;;;;;;;;;;;;;;8.94;32.91;96512.06;10203496;28;19918;-55
2023/03/15 00:56:23;;;;;;;;;;;;;;;8.84;32.35;96494.97;10211925;28;20369;-55
2023/03/15 01:01:23;;;;;;;;;;;;;;;8.79;33.00;96501.94;10211781;28;20446;-55
2023/03/15 01:06:24;;;;;;;;;;;;;;;8.83;33.45;96498.44;10221669;28;20044;-56
2023/03/15 01:11:24;;;;;;;;;;;;;;;8.65;32.48;96498.69;10230518;28;20008;-56
2023/03/15 01:16:23;;;;;;;;;;;;;;;8.64;33.06;96499.56;10223729;28;20430;-55
2023/03/15 01:21:22;;;;;;;;;;;;;;;8.66;33.19;96508.16;10218653;28;20375;-55
2023/03/15 01:26:21;;;;;;;;;;;;;;;8.55;33.52;96502.25;10222972;28;20013;-55
2023/03/15 01:31:24;;;;;;;;;;;;;;;8.55;33.67;96478.97;10218552;28;19997;-55
2023/03/15 01:36:23;;;;;;;;;;;;;;;8.37;33.91;96467.19;10210256;28;19961;-55
2023/03/15 01:41:24;;;;;;;;;;;;;;;8.29;34.11;96470.72;10210801;28;19961;-56
2023/03/15 01:46:24;;;;;;;;;;;;;;;8.22;34.09;96461.31;10213905;28;19948;-55
2023/03/15 01:51:26;;;;;;;;;;;;;;;8.33;33.87;96461.19;10249655;28;19968;-55
2023/03/15 01:56:26;;;;;;;;;;;;;;;8.18;33.91;96453.63;10234278;28;19957;-55
2023/03/15 02:01:25;;;;;;;;;;;;;;;8.25;34.85;96445.78;10210794;28;19992;-55
2023/03/15 02:06:24;;;;;;;;;;;;;;;8.26;34.35;96451.81;10246171;28;19957;-55
2023/03/15 02:11:24;;;;;;;;;;;;;;;8.22;34.67;96442.38;10246913;28;19961;-55
2023/03/15 02:16:23;;;;;;;;;;;;;;;8.26;34.42;96436.28;10244491;28;19965;-55
2023/03/15 02:21:29;;;;;;;;;;;;;;;8.12;35.24;96439.06;10248486;28;19960;-55
2023/03/15 02:26:33;;;;;;;;;;;;;;;8.00;35.35;96434.88;10247427;28;20779;-55
2023/03/15 02:31:36;;;;;;;;;;;;;;;8.21;35.40;96443.25;10246780;28;20388;-55
2023/03/15 02:36:35;;;;;;;;;;;;;;;8.28;35.78;96435.41;10247921;28;19957;-55
2023/03/15 02:41:41;;;;;;;;;;;;;;;8.24;35.89;96433.72;10248696;28;19984;-54
2023/03/15 02:46:40;;;;;;;;;;;;;;;8.21;35.10;96426.00;10248378;28;19941;-54
2023/03/15 02:51:39;;;;;;;;;;;;;;;8.01;36.66;96410.78;10247494;28;19946;-54
2023/03/15 02:56:38;;;;;;;;;;;;;;;8.09;36.26;96405.50;10247300;28;19917;-54
2023/03/15 03:01:36;;;;;;;;;;;;;;;8.00;36.22;96415.97;10240979;28;19922;-54
2023/03/15 03:06:35;;;;;;;;;;;;;;;7.72;35.99;96379.28;10206403;28;20304;-55
2023/03/15 03:11:34;;;;;;;;;;;;;;;7.93;36.23;96399.69;10207599;28;19914;-55
2023/03/15 03:16:33;;;;;;;;;;;;;;;7.86;37.43;96405.78;10205632;28;20396;-55
2023/03/15 03:21:31;;;;;;;;;;;;;;;7.91;35.77;96406.59;10204194;28;19918;-55
2023/03/15 03:26:31;;;;;;;;;;;;;;;8.10;35.29;96404.63;10204372;28;19957;-55
2023/03/15 03:31:32;;;;;;;;;;;;;;;8.32;35.26;96412.97;10204969;28;19949;-55
2023/03/15 03:36:31;;;;;;;;;;;;;;;8.37;35.53;96405.16;10205206;28;19945;-55
2023/03/15 03:41:30;;;;;;;;;;;;;;;8.32;36.18;96392.28;10203797;28;20036;-55
2023/03/15 03:46:29;;;;;;;;;;;;;;;8.29;35.71;96382.84;10203512;28;19920;-54
2023/03/15 03:51:28;;;;;;;;;;;;;;;8.18;36.04;96389.03;10244641;28;19917;-55
2023/03/15 03:56:26;;;;;;;;;;;;;;;8.08;35.64;96368.50;10242442;28;19928;-55
2023/03/15 04:01:25;;;;;;;;;;;;;;;8.21;35.73;96347.63;10239372;28;19961;-55
2023/03/15 04:06:24;;;;;;;;;;;;;;;8.00;36.00;96359.97;10204523;28;19922;-55
2023/03/15 04:11:25;;;;;;;;;;;;;;;8.14;35.82;96367.53;10205225;28;20380;-55
2023/03/15 04:16:24;;;;;;;;;;;;;;;8.13;35.98;96357.22;10204627;28;20404;-55
2023/03/15 04:21:24;;;;;;;;;;;;;;;8.20;36.15;96345.91;10204517;28;19922;-55
2023/03/15 04:26:25;;;;;;;;;;;;;;;8.15;36.06;96353.72;10204406;28;19957;-55
2023/03/15 04:31:25;;;;;;;;;;;;;;;8.20;36.39;96364.00;10205162;28;19989;-55
2023/03/15 04:36:24;;;;;;;;;;;;;;;8.07;36.35;96366.75;10204541;28;20325;-55
2023/03/15 04:41:26;;;;;;;;;;;;;;;8.06;36.65;96369.34;10203504;28;20356;-55
2023/03/15 04:46:25;;;;;;;;;;;;;;;7.85;37.68;96361.03;10204455;28;19954;-55
2023/03/15 04:51:24;;;;;;;;;;;;;;;7.90;37.27;96352.34;10203520;28;19914;-55
2023/03/15 04:56:23;;;;;;;;;;;;;;;7.79;37.14;96362.84;10205199;28;20685;-55
2023/03/15 05:01:27;;;;;;;;;;;;;;;7.81;37.89;96363.69;10204408;28;19945;-56
2023/03/15 05:06:26;;;;;;;;;;;;;;;7.92;37.44;96364.41;10241612;28;20040;-54
2023/03/15 05:11:25;;;;;;;;;;;;;;;8.03;37.03;96365.09;10243492;28;19956;-54
2023/03/15 05:16:24;;;;;;;;;;;;;;;8.11;37.73;96366.72;10216971;28;19969;-55
2023/03/15 05:23:26;;;;;;;;;;;;;;;8.35;37.33;96350.88;10141260;28;20685;-56
2023/03/15 05:30:14;;;;;;;10.13;5.40;;;;;;;8.35;37.36;96357.78;10378617;27;20195;-54
2023/03/15 05:35:13;;;;;;;12.38;4.93;;;;;;;8.38;37.59;96350.81;10414598;28;20672;-54
2023/03/15 05:40:12;;;;;;;6.90;3.60;;;;;;;8.57;36.78;96347.97;10440044;28;20131;-54
2023/03/15 05:45:11;;;;;;;16.33;9.63;;;;;;;8.40;39.45;96325.81;10439637;28;20194;-55
2023/03/15 05:50:10;;;;;;;16.88;6.82;;;;;;;8.62;38.54;96346.16;10438249;28;20141;-54
2023/03/15 05:55:09;;;;;;;20.77;9.90;;;;;;;8.89;38.07;96362.97;10439750;28;20519;-54
2023/03/15 06:00:09;;;;;;;37.05;17.45;;;;;;;9.17;38.67;96352.13;10438303;28;20036;-54
2023/03/15 06:05:08;;;;;;;17.08;8.80;;;;;;;9.26;37.18;96360.59;10438938;28;20070;-54
2023/03/15 06:10:07;;;;;;;;;;;;;;;9.53;35.83;96350.63;10433904;28;20123;-54
2023/03/15 06:15:07;;;;;;;27.15;14.98;;;;;;;9.87;38.23;96344.78;10439624;28;20419;-54
2023/03/15 06:20:06;;;;;;;23.38;12.52;;;;;;;9.38;38.04;96319.84;10437492;28;20051;-54
2023/03/15 06:25:06;;;;;;;18.58;10.07;;;;;;;9.49;38.50;96336.03;10437300;28;20052;-54
2023/03/15 06:30:06;;;;;;;86.70;33.25;;;;;;;9.56;38.70;96345.41;10438081;28;20749;-54
2023/03/15 06:35:05;;;;;;;14.45;8.70;;;;;;;9.65;38.92;96340.03;10438444;28;20048;-54
2023/03/15 06:40:07;;;;;;;12.27;6.55;;;;;;;9.73;38.61;96319.16;10413755;28;20099;-54
2023/03/15 06:45:08;;;;;;;12.80;6.60;;;;;;;10.11;37.64;96327.84;10441584;28;20055;-53
2023/03/15 06:50:08;;;;;;;7.55;4.03;;;;;;;10.31;35.96;96314.44;10410549;28;20124;-53
2023/03/15 06:55:09;;;;;;;6.65;3.72;;;;;;;10.59;33.90;96318.06;10410415;28;20063;-54
2023/03/15 07:00:10;;;;;;;5.97;3.88;;;;;;;10.59;34.08;96267.94;10409696;28;20048;-54
2023/03/15 07:05:09;;;;;;;10.65;4.30;;;;;;;11.28;33.09;96312.03;10411184;28;20059;-56
2023/03/15 07:10:09;;;;;;;10.18;3.63;;;;;;;11.24;33.54;96286.16;10430747;28;20127;-54
2023/03/15 07:15:08;;;;;;;5.57;3.00;;;;;;;11.29;33.47;96303.34;10410026;28;20529;-54
2023/03/15 07:20:08;;;;;;;5.45;2.90;;;;;;;11.23;32.69;96310.41;10410626;28;20072;-55
2023/03/15 07:25:08;;;;;;;10.27;3.83;;;;;;;11.31;32.94;96296.38;10409432;28;20484;-55
2023/03/15 07:30:08;;;;;;;6.15;3.38;;;;;;;11.41;33.74;96296.09;10440723;28;20771;-54
2023/03/15 07:35:08;;;;;;;6.68;3.70;;;;;;;11.43;33.23;96273.53;10429052;28;20098;-54
2023/03/15 07:40:11;;;;;;;7.50;3.30;;;;;;;11.92;33.56;96296.38;10408688;28;20056;-55
2023/03/15 07:45:10;;;;;;;7.63;3.83;;;;;;;12.34;32.06;96290.78;10408172;28;20123;-54
2023/03/15 07:50:11;;;;;;;;;;;;;;;12.81;32.18;96301.41;10407123;28;20056;-54
2023/03/15 07:55:10;;;;;;;6.45;3.55;;;;;;;13.17;31.69;96290.66;10407218;28;19956;-54
2023/03/15 08:00:10;;;;;;;;;;;;;;;13.25;31.04;96288.63;10407506;28;20036;-54
2023/03/15 08:05:09;;;;;;;5.10;3.30;;;;;;;13.34;31.35;96276.13;10407724;28;20405;-54
2023/03/15 08:10:09;;;;;;;9.57;4.25;;;;;;;13.61;30.94;96280.41;10404021;28;20117;-54
2023/03/15 08:15:10;;;;;;;8.27;3.60;;;;;;;13.54;30.47;96267.63;10401105;28;20115;-55
2023/03/15 08:20:10;;;;;;;6.32;3.22;;;;;;;13.72;30.77;96280.88;10401404;28;20139;-54
2023/03/15 08:25:11;;;;;;;9.40;3.50;;;;;;;13.76;30.74;96262.47;10401680;28;20115;-54
2023/03/15 08:30:12;;;;;;;8.23;3.10;;;;;;;13.92;30.53;96249.69;10404407;28;20465;-54
2023/03/15 08:35:14;;;;;;;5.93;2.85;;;;;;;14.10;29.22;96258.56;10398233;28;20127;-54
2023/03/15 08:40:15;;;;;;;7.60;3.33;;;;;;;14.13;30.52;96247.16;10404362;28;20060;-54
2023/03/15 08:45:14;;;;;;;12.10;4.63;;;;;;;14.24;29.39;96239.78;10400630;28;20120;-56
2023/03/15 08:50:16;;;;;;;5.20;3.30;;;;;;;14.20;29.95;96232.97;10405766;28;20143;-55
2023/03/15 08:55:15;;;;;;;11.95;3.92;;;;;;;14.51;29.86;96226.50;10398170;28;20120;-56
2023/03/15 09:00:19;;;;;;;;;;;;;;;14.62;30.07;96227.75;10406956;28;20828;-56
2023/03/15 09:05:19;;;;;;;13.77;4.15;;;;;;;15.17;30.40;96236.81;10406509;28;19943;-54
2023/03/15 09:10:19;;;;;;;10.38;3.58;;;;;;;15.55;29.00;96248.19;10409147;28;20804;-55
2023/03/15 09:15:18;;;;;;;8.65;3.30;;;;;;;15.56;28.89;96234.19;10403932;28;20067;-55
2023/03/15 09:20:20;;;;;;;7.15;3.70;;;;;;;15.61;29.53;96232.19;10403051;28;20052;-58
2023/03/15 09:25:20;;;;;;;4.20;2.88;;;;;;;15.72;28.88;96233.50;10397582;28;20119;-56
2023/03/15 09:30:19;;;;;;;5.25;3.40;;;;;;;15.77;28.57;96221.06;10403141;28;20509;-56
2023/03/15 09:35:19;;;;;;;10.27;3.70;;;;;;;16.09;28.49;96222.16;10402763;28;20127;-54
2023/03/15 09:40:27;;;;;;;7.68;3.10;;;;;;;16.42;28.58;96222.34;10403892;28;20092;-54
2023/03/15 09:45:50;;;;;;;6.45;3.00;;;;;;;16.26;27.80;96230.09;10403781;28;20119;-55
2023/03/15 09:51:12;;;;;;;6.85;3.30;;;;;;;16.27;28.66;96225.69;10401670;28;20060;-55
2023/03/15 09:56:58;;;;;;;5.88;3.17;;;;;;;16.24;28.33;96241.53;10400299;28;20067;-55
2023/03/15 10:02:00;;;;;;;7.40;3.10;;;;;;;16.42;28.05;96240.66;10454620;28;20122;-55
2023/03/15 10:07:02;;;;;;;6.85;3.20;;;;;;;16.38;28.28;96236.50;10411094;28;20068;-55
2023/03/15 10:12:09;;;;;;;5.65;3.40;;;;;;;16.60;28.53;96220.56;10401659;28;20537;-55
2023/03/15 10:17:12;;;;;;;10.13;3.60;;;;;;;16.98;28.73;96232.69;10407947;28;20112;-55
2023/03/15 10:22:11;;;;;;;7.60;3.30;;;;;;;17.25;27.81;96247.00;10405665;28;20052;-55
2023/03/15 10:27:21;;;;;;;7.55;3.50;;;;;;;17.22;27.35;96241.94;10406984;28;20171;-55
2023/03/15 10:32:26;;;;;;;8.10;3.53;;;;;;;17.34;27.59;96250.94;10406994;28;20115;-55
2023/03/15 10:37:25;;;;;;;16.38;3.50;;;;;;;17.33;27.77;96250.09;10408576;28;20112;-55
2023/03/15 10:42:30;;;;;;;10.02;3.55;;;;;;;17.48;27.74;96237.09;10409245;28;20060;-55
2023/03/15 10:47:29;;;;;;;5.53;3.25;;;;;;;17.68;26.61;96217.66;10407869;28;20119;-55
2023/03/15 10:52:39;;;;;;;6.50;3.65;;;;;;;17.77;26.38;96218.03;10407433;28;20040;-55
2023/03/15 10:57:49;;;;;;;4.65;3.05;;;;;;;18.00;27.15;96208.06;10407840;28;20116;-55
2023/03/15 11:03:08;;;;;;;6.38;3.40;;;;;;;18.33;27.21;96209.72;10407956;28;20124;-55
2023/03/15 11:08:15;;;;;;;4.85;3.10;;;;;;;18.40;26.96;96208.44;10405973;28;20116;-55
2023/03/15 11:13:25;;;;;;;6.65;3.13;;;;;;;18.11;26.54;96210.94;10405940;28;20113;-54
2023/03/15 11:18:29;;;;;;;5.85;4.22;;;;;;;17.82;27.38;96214.31;10407104;28;20151;-55
2023/03/15 11:23:33;;;;;;;8.82;3.72;;;;;;;17.76;27.56;96218.97;10408122;28;20083;-55
2023/03/15 11:28:36;;;;;;;7.25;3.55;;;;;;;17.86;27.86;96214.06;10405633;28;20147;-55
2023/03/15 11:33:47;;;;;;;9.20;3.78;;;;;;;18.05;26.64;96190.28;10397805;28;20135;-55
2023/03/15 11:38:47;;;;;;;5.82;3.63;;;;;;;18.39;27.12;96204.16;10404845;28;20458;-55
2023/03/15 11:44:10;;;;;;;47.83;23.60;;;;;;;18.63;27.08;96194.00;10400711;28;20115;-55
2023/03/15 11:49:39;;;;;;;6.25;4.05;;;;;;;18.96;26.46;96199.06;10403472;28;20063;-56
2023/03/15 11:54:38;;;;;;;9.95;3.92;;;;;;;19.05;26.03;96196.84;10410633;28;20064;-55
2023/03/15 11:59:38;;;;;;;6.43;3.47;;;;;;;18.74;26.25;96188.16;10407248;28;20064;-55
2023/03/15 12:04:43;;;;;;;6.60;3.70;;;;;;;18.63;26.52;96195.78;10406796;28;20129;-55
2023/03/15 12:09:57;;;;;;;7.57;4.05;;;;;;;18.27;25.65;96192.56;10408236;28;20168;-55
2023/03/15 12:15:13;;;;;;;7.85;4.00;;;;;;;18.08;27.61;96194.50;10406680;28;20048;-55
2023/03/15 12:20:17;;;;;;;11.70;4.07;;;;;;;17.78;27.34;96197.91;10407061;28;20482;-56
2023/03/15 12:25:34;;;;;;;10.00;4.75;;;;;;;17.48;27.52;96195.97;10404739;28;20056;-55
2023/03/15 12:30:44;;;;;;;9.10;4.40;;;;;;;17.22;28.15;96188.66;10407743;28;20112;-55
2023/03/15 12:35:44;;;;;;;7.75;4.68;;;;;;;16.82;28.70;96190.72;10405582;28;20473;-56
2023/03/15 12:40:54;;;;;;;8.95;4.38;;;;;;;16.57;28.93;96202.41;10405703;28;20112;-55
2023/03/15 12:45:53;;;;;;;6.93;3.90;;;;;;;16.36;29.23;96193.81;10407050;28;20071;-55
2023/03/15 12:50:55;;;;;;;12.73;5.03;;;;;;;16.13;30.51;96196.72;10405317;28;20039;-56
2023/03/15 12:55:55;;;;;;;8.30;3.70;;;;;;;15.83;32.93;96185.03;10411084;28;20127;-56
2023/03/15 13:00:54;;;;;;;6.25;3.33;;;;;;;15.38;34.23;96201.88;10404263;28;20969;-55
2023/03/15 13:06:21;;;;;;;6.20;3.60;;;;;;;15.38;33.80;96219.31;10405030;28;20466;-55
2023/03/15 13:11:29;;;;;;;7.72;5.07;;;;;;;15.52;33.09;96203.84;10403806;28;20064;-56
2023/03/15 13:16:43;;;;;;;6.80;3.83;;;;;;;15.87;32.37;96191.78;10402285;28;20068;-55
2023/03/15 13:21:57;;;;;;;7.47;4.13;;;;;;;16.21;32.56;96194.59;10403023;28;20060;-55
2023/03/15 13:27:04;;;;;;;8.98;3.97;;;;;;;16.19;31.79;96196.44;10404807;28;20850;-56
2023/03/15 13:32:18;;;;;;;13.18;4.93;;;;;;;16.21;32.22;96213.75;10404692;28;20127;-55
2023/03/15 13:37:27;;;;;;;9.00;4.03;;;;;;;16.24;32.44;96210.13;10404771;28;20056;-55
2023/03/15 13:42:27;;;;;;;8.02;4.03;;;;;;;16.12;32.63;96218.59;10404743;28;20072;-56
2023/03/15 13:47:26;;;;;;;8.63;4.38;;;;;;;15.94;33.38;96202.81;10405217;28;20067;-54
2023/03/15 13:52:25;;;;;;;5.82;4.07;;;;;;;16.14;33.54;96195.78;10443999;28;20067;-54
2023/03/15 13:57:24;;;;;;;6.72;4.22;;;;;;;16.32;32.46;96212.38;10410995;28;20127;-54
2023/03/15 14:02:25;;;;;;;7.30;3.78;;;;;;;15.90;32.97;96167.25;10413371;28;20063;-54
2023/03/15 14:07:28;;;;;;;5.35;3.70;;;;;;;16.21;33.56;96213.75;10412024;28;20139;-54
2023/03/15 14:12:29;;;;;;;10.50;6.57;;;;;;;15.95;32.44;96196.69;10411683;28;20083;-54
2023/03/15 14:17:30;;;;;;;12.10;6.68;;;;;;;15.84;32.73;96217.25;10412712;28;20169;-55
2023/03/15 14:22:29;;;;;;;14.02;8.27;;;;;;;15.39;33.63;96219.25;10411999;28;20056;-55
2023/03/15 14:27:29;;;;;;;13.45;8.25;;;;;;;14.82;34.56;96221.72;10400719;28;20163;-55
2023/03/15 14:32:32;;;;;;;18.38;10.20;;;;;;;14.43;34.71;96207.69;10411286;28;20072;-55
2023/03/15 14:37:38;;;;;;;14.13;9.35;;;;;;;13.98;35.50;96233.81;10413904;28;20068;-55
2023/03/15 14:42:38;;;;;;;16.17;10.15;;;;;;;13.57;36.00;96238.00;10411922;28;20064;-55
2023/03/15 14:47:43;;;;;;;14.23;8.68;;;;;;;13.10;36.32;96244.00;10410257;28;20160;-55
2023/03/15 14:52:43;;;;;;;16.25;9.55;;;;;;;13.01;36.70;96251.28;10409039;28;20067;-60
2023/03/15 14:57:42;;;;;;;15.00;9.13;;;;;;;13.02;36.75;96245.16;10409518;28;20051;-55
2023/03/15 15:02:41;;;;;;;;;;;;;;;12.89;36.30;96249.94;10425267;28;20120;-55
2023/03/15 15:07:40;;;;;;;17.37;11.27;;;;;;;12.70;36.36;96245.38;10409440;28;19955;-55
2023/03/15 15:12:40;;;;;;;17.05;8.88;;;;;;;12.53;36.45;96255.47;10409095;28;20090;-55
2023/03/15 15:17:39;;;;;;;15.55;9.77;;;;;;;12.50;36.68;96264.22;10442365;27;20560;-54
2023/03/15 15:22:39;;;;;;;16.85;11.13;;;;;;;12.66;36.31;96272.38;10408552;28;20119;-55
2023/03/15 15:27:38;;;;;;;14.93;10.13;;;;;;;12.83;36.40;96286.59;10409003;28;20742;-55
2023/03/15 15:32:37;;;;;;;20.00;12.45;;;;;;;12.90;35.93;96288.94;10408789;28;20692;-56
2023/03/15 15:37:36;;;;;;;20.23;12.57;;;;;;;12.97;36.07;96291.34;10408457;28;20028;-55
2023/03/15 15:42:35;;;;;;;14.68;9.68;;;;;;;12.50;36.56;96282.44;10412473;28;20056;-55
2023/03/15 15:47:34;;;;;;;22.25;12.88;;;;;;;11.38;37.67;96139.47;10413128;28;20128;-54
2023/03/15 15:52:35;;;;;;;24.08;16.83;;;;;;;12.09;38.22;96312.34;10414374;28;20139;-54
2023/03/15 15:57:34;;;;;;;25.77;16.55;;;;;;;11.97;39.00;96323.94;10407573;28;20062;-55
2023/03/15 16:02:33;;;;;;;30.58;21.33;;;;;;;11.91;38.91;96326.72;10406273;28;20051;-55
2023/03/15 16:07:33;;;;;;;42.75;28.15;;;;;;;11.89;38.86;96337.16;10407426;28;20418;-55
2023/03/15 16:12:33;;;;;;;30.75;19.10;;;;;;;11.83;39.34;96350.34;10301118;28;20853;-56
2023/03/15 16:17:32;;;;;;;25.13;14.23;;;;;;;11.50;39.31;96357.31;10361971;28;20079;-54
2023/03/15 16:22:31;;;;;;;21.20;13.77;;;;;;;11.51;39.37;96352.97;10361267;28;20592;-55
2023/03/15 16:27:32;;;;;;;19.63;12.02;;;;;;;11.33;39.75;96370.75;10362605;28;20132;-55
2023/03/15 16:32:33;;;;;;;21.35;13.77;;;;;;;11.09;40.03;96379.19;10361540;28;20072;-55
2023/03/15 16:37:33;;;;;;;20.05;13.48;;;;;;;10.99;40.17;96371.63;10361528;28;20056;-55
2023/03/15 16:42:35;;;;;;;22.27;14.70;;;;;;;11.14;40.94;96385.09;10360958;28;20496;-55
2023/03/15 16:47:34;;;;;;;22.60;14.15;;;;;;;11.22;39.99;96390.94;10374279;28;20146;-55
2023/03/15 16:52:33;;;;;;;19.10;13.48;;;;;;;11.21;39.81;96402.22;10389020;28;20048;-55
2023/03/15 16:57:32;;;;;;;17.23;12.05;;;;;;;11.11;39.13;96408.56;10372103;28;20040;-55
2023/03/15 17:02:31;;;;;;;24.55;16.38;;;;;;;11.17;39.73;96405.78;10360920;28;20486;-55
2023/03/15 17:07:34;;;;;;;26.95;18.48;;;;;;;11.21;39.95;96418.66;10360868;28;20040;-55
2023/03/15 17:12:35;;;;;;;27.42;17.23;;;;;;;11.22;40.07;96435.97;10360806;28;20068;-55
2023/03/15 17:17:35;;;;;;;23.02;14.95;;;;;;;11.33;40.47;96434.81;10362421;28;20052;-55
2023/03/15 17:22:34;;;;;;;20.98;13.70;;;;;;;11.35;41.42;96441.69;10359740;28;20087;-55
2023/03/15 17:27:43;;;;;;;17.05;11.63;;;;;;;11.40;43.08;96441.56;10358440;28;20076;-55
2023/03/15 17:32:42;;;;;;;;;;;;;;;11.31;44.52;96437.44;10361718;28;20123;-55
2023/03/15 17:37:44;;;;;;;15.45;9.50;;;;;;;11.11;44.93;96422.38;10360555;28;19919;-55
2023/03/15 17:42:43;;;;;;;16.58;12.18;;;;;;;11.20;44.54;96442.94;10359657;28;20056;-55
2023/03/15 17:47:42;;;;;;;16.80;11.52;;;;;;;11.16;45.15;96449.09;10361128;28;20036;-55
2023/03/15 17:52:43;;;;;;;20.50;14.15;;;;;;;11.11;44.91;96453.53;10360084;28;20136;-54
2023/03/15 17:57:42;;;;;;;30.67;18.45;;;;;;;11.11;43.95;96452.69;10360394;28;20064;-54
2023/03/15 18:02:43;;;;;;;25.88;16.45;;;;;;;11.04;44.40;96451.97;10359454;28;20112;-54
2023/03/15 18:07:43;;;;;;;21.17;13.52;;;;;;;10.84;44.74;96449.81;10342188;28;20096;-54
2023/03/15 18:12:45;;;;;;;20.20;13.18;;;;;;;10.94;44.32;96473.81;10357723;28;20138;-54
2023/03/15 18:17:44;;;;;;;20.35;11.35;;;;;;;10.95;44.30;96468.63;10360279;28;20066;-54
2023/03/15 18:22:43;;;;;;;;;;;;;;;10.97;45.59;96466.00;10360130;28;20123;-54
2023/03/15 18:27:42;;;;;;;16.00;9.48;;;;;;;10.92;44.93;96467.84;10361553;28;19921;-55
2023/03/15 18:32:41;;;;;;;13.15;8.57;;;;;;;10.98;46.24;96486.69;10360344;28;20482;-54
2023/03/15 18:37:40;;;;;;;14.65;8.38;;;;;;;10.98;46.44;96491.03;10363692;28;20494;-55
2023/03/15 18:42:40;;;;;;;12.48;8.93;;;;;;;11.00;47.26;96491.88;10367257;28;20537;-55
2023/03/15 18:47:39;;;;;;;16.05;9.80;;;;;;;10.86;47.96;96473.97;10367176;28;20123;-55
2023/03/15 18:52:38;;;;;;;12.93;8.43;;;;;;;10.82;47.58;96493.09;10363710;28;20110;-55
2023/03/15 18:57:40;;;;;;;19.40;10.98;;;;;;;10.77;47.50;96511.34;10366151;28;20052;-55
2023/03/15 19:02:41;;;;;;;19.38;11.73;;;;;;;10.79;48.06;96513.94;10364381;28;20132;-55
2023/03/15 19:07:40;;;;;;;21.17;14.02;;;;;;;10.78;48.25;96520.03;10360917;28;20131;-54
2023/03/15 19:12:41;;;;;;;18.48;13.15;;;;;;;10.71;49.08;96526.22;10364889;28;20064;-58
2023/03/15 19:17:40;;;;;;;24.60;17.20;;;;;;;10.74;50.73;96529.59;10365103;28;20067;-56
2023/03/15 19:22:40;;;;;;;22.38;15.70;;;;;;;10.73;52.68;96537.41;10363881;28;20131;-55
2023/03/15 19:27:40;;;;;;;24.30;17.58;;;;;;;10.73;54.91;96540.00;10364762;28;20128;-54
2023/03/15 19:32:41;;;;;;;28.80;19.08;;;;;;;10.59;55.94;96550.69;10365085;28;20064;-54
2023/03/15 19:37:43;;;;;;;25.50;18.23;;;;;;;10.45;57.91;96556.16;10364900;28;20132;-55
2023/03/15 19:42:42;;;;;;;26.45;18.65;;;;;;;10.47;60.02;96569.06;10363918;28;20124;-55
2023/03/15 19:47:41;;;;;;;29.80;21.63;;;;;;;10.37;60.99;96571.00;10364217;28;20032;-55
2023/03/15 19:52:50;;;;;;;31.85;21.60;;;;;;;10.26;62.45;96572.94;10362154;28;20123;-53
2023/03/15 19:57:48;;;;;;;31.87;22.33;;;;;;;10.18;64.66;96581.69;10363876;28;20052;-56
2023/03/15 20:02:48;;;;;;;35.47;22.52;;;;;;;9.74;65.32;96541.03;10381920;28;20040;-56
2023/03/15 20:07:50;;;;;;;23.23;17.77;;;;;;;9.87;66.31;96591.78;10362427;28;20467;-56
2023/03/15 20:12:49;;;;;;;24.80;17.40;;;;;;;9.73;68.25;96602.34;10361557;28;20676;-56
2023/03/15 20:17:48;;;;;;;23.52;15.40;;;;;;;9.68;68.52;96587.78;10362528;28;20475;-55
2023/03/15 20:22:47;;;;;;;25.17;18.60;;;;;;;9.66;71.27;96613.69;10360841;28;20037;-55
2023/03/15 20:27:46;;;;;;;30.88;21.70;;;;;;;9.61;72.21;96602.56;10363184;28;20507;-55
2023/03/15 20:32:45;;;;;;;30.13;20.70;;;;;;;9.47;72.22;96614.88;10363629;28;20152;-55
2023/03/15 20:37:44;;;;;;;33.33;22.13;;;;;;;9.42;73.18;96621.81;10382996;28;20029;-55
2023/03/15 20:42:43;;;;;;;24.80;17.05;;;;;;;9.33;73.62;96623.69;10360709;28;20500;-55
2023/03/15 20:47:42;;;;;;;;;;;;;;;9.26;75.61;96616.84;10359558;28;20069;-55
2023/03/15 20:52:42;;;;;;;24.40;15.77;;;;;;;8.36;76.36;96488.72;10383301;28;19912;-54
2023/03/15 20:57:41;;;;;;;22.55;16.48;;;;;;;9.15;76.92;96632.53;10358992;28;20127;-54
2023/03/15 21:02:40;;;;;;;26.13;19.20;;;;;;;9.01;77.50;96631.00;10357880;28;20076;-55
2023/03/15 21:07:40;;;;;;;28.95;19.23;;;;;;;8.92;77.91;96631.97;10362509;28;20033;-55
2023/03/15 21:12:39;;;;;;;31.13;19.08;;;;;;;8.85;78.73;96636.34;10361416;28;20186;-56
2023/03/15 21:17:38;;;;;;;29.50;20.17;;;;;;;8.86;79.12;96643.25;10360773;28;20053;-55
2023/03/15 21:22:37;;;;;;;27.27;19.25;;;;;;;8.90;78.75;96644.06;10361934;28;20126;-55
2023/03/15 21:27:36;;;;;;;32.75;23.05;;;;;;;8.90;79.17;96650.13;10361003;28;20068;-55
2023/03/15 21:32:37;;;;;;;41.80;28.15;;;;;;;8.74;79.03;96651.16;10360682;28;20080;-55
2023/03/15 21:37:36;;;;;;;40.53;30.40;;;;;;;8.52;80.13;96658.28;10360923;28;20060;-54
2023/03/15 21:42:35;;;;;;;41.08;26.17;;;;;;;8.33;81.29;96660.19;10362334;28;20447;-55
2023/03/15 21:47:34;;;;;;;;;;;;;;;8.09;81.48;96669.06;10362109;28;20064;-55
2023/03/15 21:52:33;;;;;;;39.88;26.73;;;;;;;8.06;82.89;96674.22;10360363;28;19963;-55
2023/03/15 21:57:32;;;;;;;33.70;22.67;;;;;;;8.11;82.86;96676.75;10360740;28;20037;-55
2023/03/15 22:02:31;;;;;;;33.03;23.55;;;;;;;8.21;82.43;96681.84;10359896;28;20507;-55
2023/03/15 22:07:30;;;;;;;30.33;21.00;;;;;;;7.95;82.18;96625.25;10360965;28;20539;-55
2023/03/15 22:12:29;;;;;;;32.67;22.88;;;;;;;8.31;81.29;96695.53;10367186;28;20103;-55
2023/03/15 22:17:28;;;;;;;47.83;31.63;;;;;;;7.90;81.67;96650.25;10368786;28;20114;-55
2023/03/15 22:22:27;;;;;;;30.35;22.17;;;;;;;8.11;82.17;96698.31;10368230;28;20032;-55
2023/03/15 22:27:26;;;;;;;28.45;19.75;;;;;;;8.18;82.78;96699.13;10366459;28;20051;-53
2023/03/15 22:32:25;;;;;;;25.33;18.60;;;;;;;8.28;82.12;96700.75;10382979;28;20029;-53
2023/03/15 22:37:24;;;;;;;25.45;18.45;;;;;;;8.36;82.28;96711.88;10366790;28;20037;-53
2023/03/15 22:42:23;;;;;;;27.90;19.17;;;;;;;7.38;81.75;96544.78;10366710;28;20478;-53
2023/03/15 22:47:22;;;;;;;28.35;21.58;;;;;;;8.24;82.20;96689.56;10366630;28;20260;-53
2023/03/15 22:52:21;;;;;;;34.42;24.75;;;;;;;8.40;82.35;96710.13;10367478;28;20148;-54
2023/03/15 22:57:21;;;;;;;32.88;23.13;;;;;;;8.44;82.29;96715.25;10366355;28;20120;-54
2023/03/15 23:02:20;;;;;;;31.63;22.90;;;;;;;8.37;82.48;96710.16;10365848;28;20059;-54
2023/03/15 23:07:19;;;;;;;30.02;21.20;;;;;;;8.32;82.48;96723.13;10365729;28;20107;-57
2023/03/15 23:12:18;;;;;;;29.80;19.70;;;;;;;7.90;82.06;96660.59;10364325;28;20033;-54
2023/03/15 23:17:17;;;;;;;32.97;21.67;;;;;;;8.24;81.98;96730.06;10364465;28;20558;-54
2023/03/15 23:22:16;;;;;;;31.08;20.80;;;;;;;8.25;82.02;96747.31;10357023;28;20547;-54
2023/03/15 23:27:15;;;;;;;26.05;17.80;;;;;;;8.18;81.11;96743.06;10355852;28;20463;-55
2023/03/15 23:32:14;;;;;;;28.50;19.80;;;;;;;8.19;81.22;96748.19;10362363;28;20522;-55
2023/03/15 23:37:15;;;;;;;22.55;16.75;;;;;;;8.13;80.88;96748.25;10381356;28;20478;-55
2023/03/15 23:42:14;;;;;;;28.20;19.65;;;;;;;8.07;80.15;96758.63;10365421;28;20534;-55
2023/03/15 23:47:13;;;;;;;30.98;21.55;;;;;;;8.07;80.44;96741.41;10365879;28;20069;-55
2023/03/15 23:52:12;;;;;;;25.40;17.83;;;;;;;8.14;79.77;96764.63;10367441;28;20116;-55